Time,TemperatureF,DewpointF,PressureIn,WindDirection,WindDirectionDegrees,WindSpeedMPH,WindSpeedGustMPH,Humidity,HourlyPrecipIn,Conditions,Clouds,dailyrainin,SoftwareType,DateUTC
2013-12-28 00:09:00,45.0,40.0,30.33,ENE,61,0.0,0.0,82,0.00,,,0.00,weatherlink.com 1.10,2013-12-28 06:09:00,
2013-12-28 00:24:00,44.8,40.0,30.33,ENE,61,0.0,0.0,83,0.00,,,0.00,weatherlink.com 1.10,2013-12-28 06:24:00,
2013-12-28 00:39:00,44.9,40.0,30.32,ENE,61,0.0,0.0,83,0.00,,,0.00,weatherlink.com 1.10,2013-12-28 06:39:00,
2013-12-28 00:54:00,45.1,40.0,30.32,ENE,61,0.0,0.0,83,0.00,,,0.00,weatherlink.com 1.10,2013-12-28 06:54:00,
2013-12-28 01:09:00,44.9,40.0,30.32,ENE,61,0.0,0.0,83,0.00,,,0.00,weatherlink.com 1.10,2013-12-28 07:09:00,
2013-12-28 01:24:00,44.8,40.0,30.31,ENE,61,0.0,0.0,83,0.00,,,0.00,weatherlink.com 1.10,2013-12-28 07:24:00,
2013-12-28 01:39:00,44.7,40.0,30.30,ENE,61,0.0,0.0,83,0.00,,,0.00,weatherlink.com 1.10,2013-12-28 07:39:00,
2013-12-28 01:54:00,44.6,40.0,30.30,ENE,61,0.0,0.0,84,0.00,,,0.00,weatherlink.com 1.10,2013-12-28 07:54:00,
2013-12-28 02:09:00,44.5,40.0,30.30,ENE,61,0.0,0.0,85,0.00,,,0.00,weatherlink.com 1.10,2013-12-28 08:09:00,
2013-12-28 02:24:00,44.4,40.0,30.29,ENE,61,0.0,0.0,85,0.00,,,0.00,weatherlink.com 1.10,2013-12-28 08:24:00,
2013-12-28 02:39:00,44.5,40.0,30.28,ENE,61,0.0,0.0,85,0.00,,,0.00,weatherlink.com 1.10,2013-12-28 08:39:00,
2013-12-28 02:54:00,44.5,40.0,30.27,ENE,61,0.0,0.0,84,0.00,,,0.00,weatherlink.com 1.10,2013-12-28 08:54:00,
2013-12-28 03:09:00,44.4,40.0,30.27,ENE,61,0.0,0.0,83,0.00,,,0.00,weatherlink.com 1.10,2013-12-28 09:09:00,
2013-12-28 03:24:00,44.3,39.0,30.28,ENE,61,0.0,0.0,83,0.00,,,0.00,weatherlink.com 1.10,2013-12-28 09:24:00,
2013-12-28 03:39:00,44.0,39.0,30.27,ENE,61,0.0,0.0,83,0.00,,,0.00,weatherlink.com 1.10,2013-12-28 09:39:00,
2013-12-28 03:55:00,43.8,39.0,30.28,ENE,61,0.0,0.0,83,0.00,,,0.00,weatherlink.com 1.10,2013-12-28 09:55:00,
2013-12-28 04:09:00,43.5,39.0,30.28,ENE,61,0.0,0.0,83,0.00,,,0.00,weatherlink.com 1.10,2013-12-28 10:09:00,
2013-12-28 04:24:00,43.6,39.0,30.27,ENE,61,0.0,0.0,84,0.00,,,0.00,weatherlink.com 1.10,2013-12-28 10:24:00,
2013-12-28 04:39:00,43.7,40.0,30.27,ENE,61,0.0,0.0,85,0.00,,,0.00,weatherlink.com 1.10,2013-12-28 10:39:00,
2013-12-28 04:54:00,43.5,39.0,30.26,ENE,61,0.0,1.0,85,0.00,,,0.00,weatherlink.com 1.10,2013-12-28 10:54:00,
2013-12-28 05:09:00,43.4,39.0,30.26,ENE,61,0.0,0.0,85,0.00,,,0.00,weatherlink.com 1.10,2013-12-28 11:09:00,
2013-12-28 05:24:00,43.5,39.0,30.26,ENE,61,0.0,0.0,85,0.00,,,0.00,weatherlink.com 1.10,2013-12-28 11:24:00,
2013-12-28 05:39:00,43.5,39.0,30.25,ENE,61,0.0,0.0,84,0.00,,,0.00,weatherlink.com 1.10,2013-12-28 11:39:00,
2013-12-28 05:54:00,43.4,39.0,30.25,ENE,61,0.0,0.0,85,0.00,,,0.00,weatherlink.com 1.10,2013-12-28 11:54:00,
2013-12-28 06:09:00,43.1,39.0,30.25,ENE,61,0.0,0.0,86,0.00,,,0.00,weatherlink.com 1.10,2013-12-28 12:09:00,
2013-12-28 06:24:00,42.8,39.0,30.25,ENE,61,0.0,0.0,86,0.00,,,0.00,weatherlink.com 1.10,2013-12-28 12:24:00,
2013-12-28 06:39:00,42.3,38.0,30.25,ENE,61,0.0,0.0,86,0.00,,,0.00,weatherlink.com 1.10,2013-12-28 12:39:00,
2013-12-28 06:54:00,42.0,38.0,30.25,ENE,61,0.0,0.0,86,0.00,,,0.00,weatherlink.com 1.10,2013-12-28 12:54:00,
2013-12-28 07:10:00,41.8,38.0,30.26,ENE,61,0.0,0.0,86,0.00,,,0.00,weatherlink.com 1.10,2013-12-28 13:10:00,
2013-12-28 07:25:00,41.4,38.0,30.26,ENE,61,0.0,1.0,87,0.00,,,0.00,weatherlink.com 1.10,2013-12-28 13:25:00,
2013-12-28 07:40:00,41.4,38.0,30.26,ENE,61,0.0,1.0,88,0.00,,,0.00,weatherlink.com 1.10,2013-12-28 13:40:00,
2013-12-28 07:55:00,41.2,38.0,30.24,ENE,61,0.0,1.0,88,0.00,,,0.00,weatherlink.com 1.10,2013-12-28 13:55:00,
2013-12-28 08:10:00,41.4,38.0,30.25,ENE,61,0.0,0.0,89,0.00,,,0.00,weatherlink.com 1.10,2013-12-28 14:10:00,
2013-12-28 08:25:00,41.5,38.0,30.24,ENE,61,0.0,0.0,88,0.00,,,0.00,weatherlink.com 1.10,2013-12-28 14:25:00,
2013-12-28 08:40:00,41.6,38.0,30.24,ENE,61,0.0,0.0,88,0.00,,,0.00,weatherlink.com 1.10,2013-12-28 14:40:00,
2013-12-28 08:55:00,41.9,39.0,30.25,ENE,61,0.0,0.0,88,0.00,,,0.00,weatherlink.com 1.10,2013-12-28 14:55:00,
2013-12-28 09:10:00,42.8,39.0,30.25,ENE,61,0.0,0.0,87,0.00,,,0.00,weatherlink.com 1.10,2013-12-28 15:10:00,
2013-12-28 09:25:00,44.2,40.0,30.25,ENE,61,0.0,2.0,86,0.00,,,0.00,weatherlink.com 1.10,2013-12-28 15:25:00,
2013-12-28 09:40:00,46.0,40.0,30.25,ENE,61,0.0,2.0,80,0.00,,,0.00,weatherlink.com 1.10,2013-12-28 15:40:00,
2013-12-28 09:55:00,47.3,40.0,30.25,NE,56,0.0,1.0,75,0.00,,,0.00,weatherlink.com 1.10,2013-12-28 15:55:00,
2013-12-28 10:10:00,48.5,39.0,30.25,NE,49,0.0,1.0,69,0.00,,,0.00,weatherlink.com 1.10,2013-12-28 16:10:00,
2013-12-28 10:25:00,50.2,38.0,30.24,NNE,25,0.0,2.0,63,0.00,,,0.00,weatherlink.com 1.10,2013-12-28 16:25:00,
2013-12-28 10:40:00,51.2,36.0,30.25,North,355,0.0,2.0,56,0.00,,,0.00,weatherlink.com 1.10,2013-12-28 16:40:00,
2013-12-28 10:55:00,51.8,35.0,30.24,ESE,104,0.0,2.0,53,0.00,,,0.00,weatherlink.com 1.10,2013-12-28 16:55:00,
2013-12-28 11:10:00,53.1,35.0,30.23,ESE,104,0.0,1.0,51,0.00,,,0.00,weatherlink.com 1.10,2013-12-28 17:10:00,
2013-12-28 11:25:00,53.0,34.0,30.21,ESE,103,0.0,2.0,48,0.00,,,0.00,weatherlink.com 1.10,2013-12-28 17:25:00,
2013-12-28 11:40:00,53.1,34.0,30.21,ESE,103,0.0,1.0,48,0.00,,,0.00,weatherlink.com 1.10,2013-12-28 17:40:00,
2013-12-28 11:55:00,53.5,33.0,30.19,ESE,103,0.0,1.0,46,0.00,,,0.00,weatherlink.com 1.10,2013-12-28 17:55:00,
2013-12-28 12:10:00,54.6,35.0,30.18,ESE,103,0.0,1.0,47,0.00,,,0.00,weatherlink.com 1.10,2013-12-28 18:10:00,
2013-12-28 12:25:00,54.9,34.0,30.17,ESE,103,0.0,2.0,45,0.00,,,0.00,weatherlink.com 1.10,2013-12-28 18:25:00,
2013-12-28 12:40:00,55.1,33.0,30.16,ESE,103,0.0,0.0,44,0.00,,,0.00,weatherlink.com 1.10,2013-12-28 18:40:00,
2013-12-28 12:55:00,55.4,31.0,30.16,ESE,103,0.0,1.0,40,0.00,,,0.00,weatherlink.com 1.10,2013-12-28 18:55:00,
2013-12-28 13:10:00,55.1,33.0,30.13,ESE,103,0.0,0.0,44,0.00,,,0.00,weatherlink.com 1.10,2013-12-28 19:10:00,
2013-12-28 13:25:00,55.1,35.0,30.12,ESE,103,0.0,1.0,47,0.00,,,0.00,weatherlink.com 1.10,2013-12-28 19:25:00,
2013-12-28 13:40:00,55.1,33.0,30.11,ESE,103,0.0,1.0,44,0.00,,,0.00,weatherlink.com 1.10,2013-12-28 19:40:00,
2013-12-28 13:56:00,55.6,33.0,30.11,ESE,103,0.0,1.0,42,0.00,,,0.00,weatherlink.com 1.10,2013-12-28 19:56:00,
2013-12-28 14:11:00,55.0,33.0,30.10,ESE,114,0.0,3.0,43,0.00,,,0.00,weatherlink.com 1.10,2013-12-28 20:11:00,
2013-12-28 14:26:00,55.2,35.0,30.09,ESE,114,0.0,0.0,47,0.00,,,0.00,weatherlink.com 1.10,2013-12-28 20:26:00,
2013-12-28 14:41:00,56.0,34.0,30.09,ESE,114,0.0,1.0,44,0.00,,,0.00,weatherlink.com 1.10,2013-12-28 20:41:00,
2013-12-28 14:56:00,56.7,33.0,30.08,ESE,114,1.0,2.0,41,0.00,,,0.00,weatherlink.com 1.10,2013-12-28 20:56:00,
2013-12-28 15:11:00,56.9,34.0,30.09,ENE,77,0.0,2.0,42,0.00,,,0.00,weatherlink.com 1.10,2013-12-28 21:11:00,
2013-12-28 15:26:00,56.4,32.0,30.08,SE,124,0.0,3.0,40,0.00,,,0.00,weatherlink.com 1.10,2013-12-28 21:26:00,
2013-12-28 15:41:00,56.0,34.0,30.08,SE,145,0.0,2.0,43,0.00,,,0.00,weatherlink.com 1.10,2013-12-28 21:41:00,
2013-12-28 15:56:00,55.6,34.0,30.07,SE,145,0.0,2.0,44,0.00,,,0.00,weatherlink.com 1.10,2013-12-28 21:56:00,
2013-12-28 16:11:00,55.3,33.0,30.06,SE,145,0.0,2.0,43,0.00,,,0.00,weatherlink.com 1.10,2013-12-28 22:11:00,
2013-12-28 16:26:00,54.9,34.0,30.07,SE,145,0.0,0.0,46,0.00,,,0.00,weatherlink.com 1.10,2013-12-28 22:26:00,
2013-12-28 16:41:00,54.3,35.0,30.07,SE,145,0.0,0.0,49,0.00,,,0.00,weatherlink.com 1.10,2013-12-28 22:41:00,
2013-12-28 16:56:00,53.9,35.0,30.06,SE,145,0.0,0.0,50,0.00,,,0.00,weatherlink.com 1.10,2013-12-28 22:56:00,
2013-12-28 17:11:00,53.0,35.0,30.06,SE,145,0.0,0.0,51,0.00,,,0.00,weatherlink.com 1.10,2013-12-28 23:11:00,
2013-12-28 17:26:00,51.6,35.0,30.06,SE,145,0.0,0.0,54,0.00,,,0.00,weatherlink.com 1.10,2013-12-28 23:26:00,
2013-12-28 17:41:00,49.9,36.0,30.07,SE,145,0.0,0.0,60,0.00,,,0.00,weatherlink.com 1.10,2013-12-28 23:41:00,
2013-12-28 17:56:00,48.9,37.0,30.05,SE,145,0.0,0.0,64,0.00,,,0.00,weatherlink.com 1.10,2013-12-28 23:56:00,
2013-12-28 18:11:00,48.3,38.0,30.05,SE,145,0.0,0.0,67,0.00,,,0.00,weatherlink.com 1.10,2013-12-29 00:11:00,
2013-12-28 18:26:00,47.5,39.0,30.05,SE,145,0.0,0.0,73,0.00,,,0.00,weatherlink.com 1.10,2013-12-29 00:26:00,
2013-12-28 18:41:00,47.0,38.0,30.05,SE,145,0.0,0.0,71,0.00,,,0.00,weatherlink.com 1.10,2013-12-29 00:41:00,
2013-12-28 18:56:00,46.5,39.0,30.06,SE,145,0.0,0.0,75,0.00,,,0.00,weatherlink.com 1.10,2013-12-29 00:56:00,
2013-12-28 19:11:00,45.7,39.0,30.06,SE,145,0.0,0.0,76,0.00,,,0.00,weatherlink.com 1.10,2013-12-29 01:11:00,
2013-12-28 19:26:00,44.8,38.0,30.05,SE,145,0.0,0.0,76,0.00,,,0.00,weatherlink.com 1.10,2013-12-29 01:26:00,
2013-12-28 19:41:00,44.4,38.0,30.05,SE,145,0.0,0.0,78,0.00,,,0.00,weatherlink.com 1.10,2013-12-29 01:41:00,
2013-12-28 19:56:00,44.1,38.0,30.05,SE,145,0.0,0.0,79,0.00,,,0.00,weatherlink.com 1.10,2013-12-29 01:56:00,
2013-12-28 20:11:00,43.9,37.0,30.05,SE,145,0.0,0.0,77,0.00,,,0.00,weatherlink.com 1.10,2013-12-29 02:11:00,
2013-12-28 20:26:00,44.0,39.0,30.05,SE,145,0.0,0.0,81,0.00,,,0.00,weatherlink.com 1.10,2013-12-29 02:26:00,
2013-12-28 20:41:00,43.9,38.0,30.05,SE,145,0.0,0.0,81,0.00,,,0.00,weatherlink.com 1.10,2013-12-29 02:41:00,
2013-12-28 20:56:00,44.0,39.0,30.05,SE,145,0.0,0.0,81,0.00,,,0.00,weatherlink.com 1.10,2013-12-29 02:56:00,
2013-12-28 21:11:00,44.1,39.0,30.05,SE,145,0.0,0.0,81,0.00,,,0.00,weatherlink.com 1.10,2013-12-29 03:11:00,
2013-12-28 21:26:00,44.4,39.0,30.04,SE,145,0.0,0.0,81,0.00,,,0.00,weatherlink.com 1.10,2013-12-29 03:26:00,
2013-12-28 21:41:00,44.8,39.0,30.04,SE,145,0.0,0.0,81,0.00,,,0.00,weatherlink.com 1.10,2013-12-29 03:41:00,
2013-12-28 21:56:00,44.7,40.0,30.04,SE,145,0.0,0.0,82,0.00,,,0.00,weatherlink.com 1.10,2013-12-29 03:56:00,
2013-12-28 22:11:00,44.7,40.0,30.03,SE,145,0.0,0.0,83,0.00,,,0.00,weatherlink.com 1.10,2013-12-29 04:11:00,
2013-12-28 22:26:00,44.6,40.0,30.02,SE,145,0.0,0.0,84,0.00,,,0.00,weatherlink.com 1.10,2013-12-29 04:26:00,
2013-12-28 22:41:00,43.7,39.0,30.03,SE,145,0.0,0.0,84,0.00,,,0.00,weatherlink.com 1.10,2013-12-29 04:41:00,
2013-12-28 22:56:00,42.9,39.0,30.04,SE,145,0.0,0.0,85,0.00,,,0.00,weatherlink.com 1.10,2013-12-29 04:56:00,
2013-12-28 23:11:00,42.5,39.0,30.03,SE,145,0.0,0.0,86,0.00,,,0.00,weatherlink.com 1.10,2013-12-29 05:11:00,
2013-12-28 23:26:00,42.1,38.0,30.03,SE,145,0.0,0.0,86,0.00,,,0.00,weatherlink.com 1.10,2013-12-29 05:26:00,
2013-12-28 23:41:00,41.5,38.0,30.03,SE,145,0.0,0.0,86,0.00,,,0.00,weatherlink.com 1.10,2013-12-29 05:41:00,
2013-12-28 23:56:00,41.0,37.0,30.03,SE,145,0.0,0.0,87,0.00,,,0.00,weatherlink.com 1.10,2013-12-29 05:56:00,